sensor_id;sensor_type;location;lat;lon;timestamp;P1;durP1;ratioP1;P2;durP2;ratioP2
5456;SDS011;2751;49.802;9.944;2023-05-10T00:01:00;2.63;;;2.43;;
5456;SDS011;2751;49.802;9.944;2023-05-10T00:03:27;2.70;;;2.30;;
5456;SDS011;2751;49.802;9.944;2023-05-10T00:05:55;2.23;;;2.13;;
5456;SDS011;2751;49.802;9.944;2023-05-10T00:08:22;3.07;;;2.50;;
5456;SDS011;2751;49.802;9.944;2023-05-10T00:10:49;2.40;;;2.30;;
5456;SDS011;2751;49.802;9.944;2023-05-10T00:13:16;1.90;;;1.80;;
5456;SDS011;2751;49.802;9.944;2023-05-10T00:15:43;2.23;;;2.03;;
5456;SDS011;2751;49.802;9.944;2023-05-10T00:18:10;2.40;;;2.20;;
5456;SDS011;2751;49.802;9.944;2023-05-10T00:20:37;3.50;;;2.00;;
5456;SDS011;2751;49.802;9.944;2023-05-10T00:23:05;2.17;;;2.00;;
5456;SDS011;2751;49.802;9.944;2023-05-10T00:25:31;2.13;;;2.03;;
5456;SDS011;2751;49.802;9.944;2023-05-10T00:27:58;3.27;;;2.40;;
5456;SDS011;2751;49.802;9.944;2023-05-10T00:30:26;5.80;;;2.13;;
5456;SDS011;2751;49.802;9.944;2023-05-10T00:32:53;2.30;;;2.10;;
5456;SDS011;2751;49.802;9.944;2023-05-10T00:35:20;2.27;;;2.17;;
5456;SDS011;2751;49.802;9.944;2023-05-10T00:37:47;3.50;;;2.00;;
5456;SDS011;2751;49.802;9.944;2023-05-10T00:40:16;2.13;;;2.03;;
5456;SDS011;2751;49.802;9.944;2023-05-10T00:42:42;2.63;;;2.10;;
5456;SDS011;2751;49.802;9.944;2023-05-10T00:45:09;2.13;;;2.03;;
5456;SDS011;2751;49.802;9.944;2023-05-10T00:47:36;2.30;;;2.20;;
5456;SDS011;2751;49.802;9.944;2023-05-10T00:50:04;2.07;;;1.97;;
5456;SDS011;2751;49.802;9.944;2023-05-10T00:52:32;3.07;;;2.00;;
5456;SDS011;2751;49.802;9.944;2023-05-10T00:54:59;2.80;;;2.23;;
5456;SDS011;2751;49.802;9.944;2023-05-10T00:57:29;3.23;;;2.30;;
5456;SDS011;2751;49.802;9.944;2023-05-10T00:59:56;2.23;;;2.00;;
5456;SDS011;2751;49.802;9.944;2023-05-10T01:02:25;2.97;;;1.93;;
5456;SDS011;2751;49.802;9.944;2023-05-10T01:04:52;2.80;;;2.13;;
5456;SDS011;2751;49.802;9.944;2023-05-10T01:07:19;2.83;;;2.57;;
5456;SDS011;2751;49.802;9.944;2023-05-10T01:09:46;2.50;;;2.40;;
5456;SDS011;2751;49.802;9.944;2023-05-10T01:12:14;2.70;;;2.50;;
5456;SDS011;2751;49.802;9.944;2023-05-10T01:14:42;3.00;;;2.70;;
5456;SDS011;2751;49.802;9.944;2023-05-10T01:17:09;2.70;;;2.47;;
5456;SDS011;2751;49.802;9.944;2023-05-10T01:19:37;2.20;;;2.10;;
5456;SDS011;2751;49.802;9.944;2023-05-10T01:22:06;2.53;;;2.30;;
5456;SDS011;2751;49.802;9.944;2023-05-10T01:25:01;3.33;;;2.00;;
5456;SDS011;2751;49.802;9.944;2023-05-10T01:33:56;5.13;;;2.37;;
5456;SDS011;2751;49.802;9.944;2023-05-10T01:36:29;1.80;;;1.70;;
5456;SDS011;2751;49.802;9.944;2023-05-10T01:39:00;1.50;;;1.50;;
5456;SDS011;2751;49.802;9.944;2023-05-10T01:41:33;2.53;;;2.20;;
5456;SDS011;2751;49.802;9.944;2023-05-10T01:44:10;2.10;;;2.00;;
5456;SDS011;2751;49.802;9.944;2023-05-10T01:46:42;1.30;;;1.30;;
5456;SDS011;2751;49.802;9.944;2023-05-10T01:49:16;1.20;;;1.20;;
5456;SDS011;2751;49.802;9.944;2023-05-10T01:51:47;1.33;;;1.23;;
5456;SDS011;2751;49.802;9.944;2023-05-10T01:54:19;1.23;;;1.13;;
5456;SDS011;2751;49.802;9.944;2023-05-10T01:56:47;4.17;;;1.40;;
5456;SDS011;2751;49.802;9.944;2023-05-10T01:59:21;1.30;;;1.20;;
5456;SDS011;2751;49.802;9.944;2023-05-10T02:01:53;1.40;;;1.30;;
5456;SDS011;2751;49.802;9.944;2023-05-10T02:04:23;1.10;;;1.03;;
5456;SDS011;2751;49.802;9.944;2023-05-10T02:06:52;1.10;;;1.10;;
5456;SDS011;2751;49.802;9.944;2023-05-10T02:09:20;1.00;;;0.90;;
5456;SDS011;2751;49.802;9.944;2023-05-10T02:11:48;0.80;;;0.80;;
5456;SDS011;2751;49.802;9.944;2023-05-10T02:14:16;0.90;;;0.90;;
5456;SDS011;2751;49.802;9.944;2023-05-10T02:16:45;2.13;;;0.90;;
5456;SDS011;2751;49.802;9.944;2023-05-10T02:19:13;0.80;;;0.80;;
5456;SDS011;2751;49.802;9.944;2023-05-10T02:21:42;0.80;;;0.80;;
5456;SDS011;2751;49.802;9.944;2023-05-10T02:24:10;0.77;;;0.70;;
5456;SDS011;2751;49.802;9.944;2023-05-10T02:26:38;0.60;;;0.60;;
5456;SDS011;2751;49.802;9.944;2023-05-10T02:29:05;0.70;;;0.70;;
5456;SDS011;2751;49.802;9.944;2023-05-10T02:31:34;1.30;;;0.80;;
5456;SDS011;2751;49.802;9.944;2023-05-10T02:34:03;0.70;;;0.70;;
5456;SDS011;2751;49.802;9.944;2023-05-10T02:36:32;0.67;;;0.67;;
5456;SDS011;2751;49.802;9.944;2023-05-10T02:39:01;0.70;;;0.70;;
5456;SDS011;2751;49.802;9.944;2023-05-10T02:41:28;0.77;;;0.77;;
5456;SDS011;2751;49.802;9.944;2023-05-10T02:43:57;7.13;;;0.93;;
5456;SDS011;2751;49.802;9.944;2023-05-10T02:46:27;0.70;;;0.70;;
5456;SDS011;2751;49.802;9.944;2023-05-10T02:48:55;1.50;;;0.70;;
5456;SDS011;2751;49.802;9.944;2023-05-10T02:51:22;0.93;;;0.70;;
5456;SDS011;2751;49.802;9.944;2023-05-10T02:53:53;0.60;;;0.60;;
5456;SDS011;2751;49.802;9.944;2023-05-10T02:56:25;1.10;;;0.80;;
5456;SDS011;2751;49.802;9.944;2023-05-10T02:58:55;0.63;;;0.63;;
5456;SDS011;2751;49.802;9.944;2023-05-10T03:01:22;0.70;;;0.70;;
5456;SDS011;2751;49.802;9.944;2023-05-10T03:03:49;1.27;;;0.80;;
5456;SDS011;2751;49.802;9.944;2023-05-10T03:06:16;1.30;;;0.80;;
5456;SDS011;2751;49.802;9.944;2023-05-10T03:08:43;0.90;;;0.80;;
5456;SDS011;2751;49.802;9.944;2023-05-10T03:11:23;0.70;;;0.70;;
5456;SDS011;2751;49.802;9.944;2023-05-10T03:14:02;0.60;;;0.60;;
5456;SDS011;2751;49.802;9.944;2023-05-10T03:16:42;7.30;;;1.00;;
5456;SDS011;2751;49.802;9.944;2023-05-10T03:19:14;0.70;;;0.70;;
5456;SDS011;2751;49.802;9.944;2023-05-10T03:21:46;0.70;;;0.70;;
5456;SDS011;2751;49.802;9.944;2023-05-10T03:24:16;2.30;;;0.70;;
5456;SDS011;2751;49.802;9.944;2023-05-10T03:26:49;0.60;;;0.60;;
5456;SDS011;2751;49.802;9.944;2023-05-10T03:29:20;0.60;;;0.60;;
5456;SDS011;2751;49.802;9.944;2023-05-10T03:31:47;0.70;;;0.70;;
5456;SDS011;2751;49.802;9.944;2023-05-10T03:34:14;0.60;;;0.60;;
5456;SDS011;2751;49.802;9.944;2023-05-10T03:36:42;0.60;;;0.60;;
5456;SDS011;2751;49.802;9.944;2023-05-10T03:39:09;0.63;;;0.63;;
5456;SDS011;2751;49.802;9.944;2023-05-10T03:41:36;1.83;;;0.70;;
5456;SDS011;2751;49.802;9.944;2023-05-10T03:44:04;0.80;;;0.60;;
5456;SDS011;2751;49.802;9.944;2023-05-10T03:46:31;0.80;;;0.67;;
5456;SDS011;2751;49.802;9.944;2023-05-10T03:48:58;0.70;;;0.70;;
5456;SDS011;2751;49.802;9.944;2023-05-10T03:51:25;0.70;;;0.70;;
5456;SDS011;2751;49.802;9.944;2023-05-10T03:53:53;0.70;;;0.70;;
5456;SDS011;2751;49.802;9.944;2023-05-10T03:56:20;0.90;;;0.90;;
5456;SDS011;2751;49.802;9.944;2023-05-10T03:58:46;1.90;;;0.80;;
5456;SDS011;2751;49.802;9.944;2023-05-10T04:01:15;1.20;;;1.00;;
5456;SDS011;2751;49.802;9.944;2023-05-10T04:03:41;0.80;;;0.80;;
5456;SDS011;2751;49.802;9.944;2023-05-10T04:06:08;0.80;;;0.80;;
5456;SDS011;2751;49.802;9.944;2023-05-10T04:08:36;1.10;;;0.80;;
5456;SDS011;2751;49.802;9.944;2023-05-10T04:11:06;0.83;;;0.77;;
5456;SDS011;2751;49.802;9.944;2023-05-10T04:13:33;2.30;;;0.80;;
5456;SDS011;2751;49.802;9.944;2023-05-10T04:16:00;3.13;;;0.73;;
5456;SDS011;2751;49.802;9.944;2023-05-10T04:18:29;0.90;;;0.90;;
5456;SDS011;2751;49.802;9.944;2023-05-10T04:20:56;0.57;;;0.57;;
5456;SDS011;2751;49.802;9.944;2023-05-10T04:23:23;1.80;;;0.90;;
5456;SDS011;2751;49.802;9.944;2023-05-10T04:25:49;1.57;;;0.70;;
5456;SDS011;2751;49.802;9.944;2023-05-10T04:28:16;0.70;;;0.70;;
5456;SDS011;2751;49.802;9.944;2023-05-10T04:30:43;0.90;;;0.90;;
5456;SDS011;2751;49.802;9.944;2023-05-10T04:33:10;1.37;;;0.77;;
5456;SDS011;2751;49.802;9.944;2023-05-10T04:35:39;1.37;;;1.07;;
5456;SDS011;2751;49.802;9.944;2023-05-10T04:38:06;1.17;;;0.80;;
5456;SDS011;2751;49.802;9.944;2023-05-10T04:40:32;0.90;;;0.90;;
5456;SDS011;2751;49.802;9.944;2023-05-10T04:42:59;1.20;;;0.90;;
5456;SDS011;2751;49.802;9.944;2023-05-10T04:45:26;1.63;;;0.87;;
5456;SDS011;2751;49.802;9.944;2023-05-10T04:47:53;0.80;;;0.80;;
5456;SDS011;2751;49.802;9.944;2023-05-10T04:50:20;1.00;;;1.00;;
5456;SDS011;2751;49.802;9.944;2023-05-10T04:52:48;1.03;;;1.03;;
5456;SDS011;2751;49.802;9.944;2023-05-10T04:55:15;1.10;;;1.00;;
5456;SDS011;2751;49.802;9.944;2023-05-10T04:57:42;2.97;;;1.20;;
5456;SDS011;2751;49.802;9.944;2023-05-10T05:00:10;0.93;;;0.93;;
5456;SDS011;2751;49.802;9.944;2023-05-10T05:02:37;0.90;;;0.90;;
5456;SDS011;2751;49.802;9.944;2023-05-10T05:05:05;1.57;;;1.47;;
5456;SDS011;2751;49.802;9.944;2023-05-10T05:07:32;1.20;;;1.20;;
5456;SDS011;2751;49.802;9.944;2023-05-10T05:10:00;1.30;;;1.20;;
5456;SDS011;2751;49.802;9.944;2023-05-10T05:12:28;1.10;;;1.10;;
5456;SDS011;2751;49.802;9.944;2023-05-10T05:14:54;1.13;;;1.03;;
5456;SDS011;2751;49.802;9.944;2023-05-10T05:17:21;1.30;;;1.17;;
5456;SDS011;2751;49.802;9.944;2023-05-10T05:19:48;1.83;;;0.90;;
5456;SDS011;2751;49.802;9.944;2023-05-10T05:22:15;1.00;;;1.00;;
5456;SDS011;2751;49.802;9.944;2023-05-10T05:24:42;1.93;;;0.93;;
5456;SDS011;2751;49.802;9.944;2023-05-10T05:27:11;1.40;;;1.03;;
5456;SDS011;2751;49.802;9.944;2023-05-10T05:29:38;0.80;;;0.80;;
5456;SDS011;2751;49.802;9.944;2023-05-10T05:32:05;6.00;;;1.43;;
5456;SDS011;2751;49.802;9.944;2023-05-10T05:34:33;1.20;;;1.03;;
5456;SDS011;2751;49.802;9.944;2023-05-10T05:37:00;1.27;;;1.20;;
5456;SDS011;2751;49.802;9.944;2023-05-10T05:39:27;0.97;;;0.97;;
5456;SDS011;2751;49.802;9.944;2023-05-10T05:41:54;8.93;;;6.53;;
5456;SDS011;2751;49.802;9.944;2023-05-10T05:44:22;1.63;;;1.30;;
5456;SDS011;2751;49.802;9.944;2023-05-10T05:46:49;3.27;;;1.50;;
5456;SDS011;2751;49.802;9.944;2023-05-10T05:49:16;2.27;;;1.37;;
5456;SDS011;2751;49.802;9.944;2023-05-10T05:51:43;1.43;;;1.27;;
5456;SDS011;2751;49.802;9.944;2023-05-10T05:54:10;2.10;;;1.30;;
5456;SDS011;2751;49.802;9.944;2023-05-10T05:56:38;4.60;;;1.60;;
5456;SDS011;2751;49.802;9.944;2023-05-10T05:59:04;1.80;;;1.20;;
5456;SDS011;2751;49.802;9.944;2023-05-10T06:01:33;1.30;;;1.20;;
5456;SDS011;2751;49.802;9.944;2023-05-10T06:04:00;0.83;;;0.83;;
5456;SDS011;2751;49.802;9.944;2023-05-10T06:06:26;4.63;;;1.20;;
5456;SDS011;2751;49.802;9.944;2023-05-10T06:08:53;6.20;;;1.70;;
5456;SDS011;2751;49.802;9.944;2023-05-10T06:11:20;1.17;;;1.07;;
5456;SDS011;2751;49.802;9.944;2023-05-10T06:13:47;3.40;;;1.23;;
5456;SDS011;2751;49.802;9.944;2023-05-10T06:16:14;2.63;;;0.90;;
5456;SDS011;2751;49.802;9.944;2023-05-10T06:18:43;1.10;;;1.07;;
5456;SDS011;2751;49.802;9.944;2023-05-10T06:21:10;1.43;;;1.17;;
5456;SDS011;2751;49.802;9.944;2023-05-10T06:23:36;1.40;;;1.30;;
5456;SDS011;2751;49.802;9.944;2023-05-10T06:26:03;1.50;;;1.00;;
5456;SDS011;2751;49.802;9.944;2023-05-10T06:28:30;1.00;;;1.00;;
5456;SDS011;2751;49.802;9.944;2023-05-10T06:30:58;2.50;;;1.17;;
5456;SDS011;2751;49.802;9.944;2023-05-10T06:33:25;1.20;;;1.10;;
5456;SDS011;2751;49.802;9.944;2023-05-10T06:35:53;4.47;;;1.50;;
5456;SDS011;2751;49.802;9.944;2023-05-10T06:38:20;4.60;;;1.40;;
5456;SDS011;2751;49.802;9.944;2023-05-10T06:40:47;5.50;;;1.60;;
5456;SDS011;2751;49.802;9.944;2023-05-10T06:43:14;1.73;;;1.33;;
5456;SDS011;2751;49.802;9.944;2023-05-10T06:45:41;1.80;;;1.20;;
5456;SDS011;2751;49.802;9.944;2023-05-10T06:48:08;4.50;;;1.30;;
5456;SDS011;2751;49.802;9.944;2023-05-10T06:50:35;1.20;;;1.10;;
5456;SDS011;2751;49.802;9.944;2023-05-10T06:53:03;1.67;;;1.20;;
5456;SDS011;2751;49.802;9.944;2023-05-10T06:55:30;2.03;;;1.40;;
5456;SDS011;2751;49.802;9.944;2023-05-10T06:57:57;2.80;;;1.90;;
5456;SDS011;2751;49.802;9.944;2023-05-10T07:00:24;4.53;;;1.40;;
5456;SDS011;2751;49.802;9.944;2023-05-10T07:02:51;1.97;;;1.47;;
5456;SDS011;2751;49.802;9.944;2023-05-10T07:05:18;1.90;;;0.90;;
5456;SDS011;2751;49.802;9.944;2023-05-10T07:07:45;2.97;;;1.47;;
5456;SDS011;2751;49.802;9.944;2023-05-10T07:10:13;4.13;;;1.60;;
5456;SDS011;2751;49.802;9.944;2023-05-10T07:12:40;1.87;;;1.50;;
5456;SDS011;2751;49.802;9.944;2023-05-10T07:15:07;4.17;;;1.47;;
5456;SDS011;2751;49.802;9.944;2023-05-10T07:17:35;1.37;;;1.20;;
5456;SDS011;2751;49.802;9.944;2023-05-10T07:20:02;1.50;;;1.37;;
5456;SDS011;2751;49.802;9.944;2023-05-10T07:22:29;1.70;;;1.60;;
5456;SDS011;2751;49.802;9.944;2023-05-10T07:24:56;1.40;;;1.30;;
5456;SDS011;2751;49.802;9.944;2023-05-10T07:27:24;2.00;;;1.90;;
5456;SDS011;2751;49.802;9.944;2023-05-10T07:29:51;1.60;;;1.50;;
5456;SDS011;2751;49.802;9.944;2023-05-10T07:32:19;2.97;;;1.80;;
5456;SDS011;2751;49.802;9.944;2023-05-10T07:34:46;2.50;;;1.70;;
5456;SDS011;2751;49.802;9.944;2023-05-10T07:37:13;2.93;;;1.30;;
5456;SDS011;2751;49.802;9.944;2023-05-10T07:39:40;1.83;;;1.73;;
5456;SDS011;2751;49.802;9.944;2023-05-10T07:42:07;1.43;;;1.23;;
5456;SDS011;2751;49.802;9.944;2023-05-10T07:44:35;2.33;;;1.57;;
5456;SDS011;2751;49.802;9.944;2023-05-10T07:47:02;1.93;;;1.50;;
5456;SDS011;2751;49.802;9.944;2023-05-10T07:49:29;2.27;;;1.60;;
5456;SDS011;2751;49.802;9.944;2023-05-10T07:51:55;1.23;;;1.23;;
5456;SDS011;2751;49.802;9.944;2023-05-10T07:54:22;1.50;;;1.37;;
5456;SDS011;2751;49.802;9.944;2023-05-10T07:56:49;3.87;;;1.67;;
5456;SDS011;2751;49.802;9.944;2023-05-10T07:59:17;6.37;;;1.40;;
5456;SDS011;2751;49.802;9.944;2023-05-10T08:01:45;7.43;;;1.90;;
5456;SDS011;2751;49.802;9.944;2023-05-10T08:04:12;2.50;;;1.57;;
5456;SDS011;2751;49.802;9.944;2023-05-10T08:06:39;2.30;;;1.30;;
5456;SDS011;2751;49.802;9.944;2023-05-10T08:09:06;2.83;;;1.60;;
5456;SDS011;2751;49.802;9.944;2023-05-10T08:11:33;4.30;;;2.70;;
5456;SDS011;2751;49.802;9.944;2023-05-10T08:14:00;2.60;;;2.00;;
5456;SDS011;2751;49.802;9.944;2023-05-10T08:16:27;2.27;;;1.40;;
5456;SDS011;2751;49.802;9.944;2023-05-10T08:18:55;2.50;;;1.40;;
5456;SDS011;2751;49.802;9.944;2023-05-10T08:21:22;4.63;;;1.50;;
5456;SDS011;2751;49.802;9.944;2023-05-10T08:23:49;3.27;;;1.77;;
5456;SDS011;2751;49.802;9.944;2023-05-10T08:26:15;1.80;;;1.70;;
5456;SDS011;2751;49.802;9.944;2023-05-10T08:28:42;4.80;;;2.20;;
5456;SDS011;2751;49.802;9.944;2023-05-10T08:31:09;3.50;;;2.07;;
5456;SDS011;2751;49.802;9.944;2023-05-10T08:33:36;1.60;;;1.50;;
5456;SDS011;2751;49.802;9.944;2023-05-10T08:36:04;3.70;;;1.50;;
5456;SDS011;2751;49.802;9.944;2023-05-10T08:38:31;2.90;;;1.50;;
5456;SDS011;2751;49.802;9.944;2023-05-10T08:40:58;6.00;;;2.13;;
5456;SDS011;2751;49.802;9.944;2023-05-10T08:43:27;1.60;;;1.40;;
5456;SDS011;2751;49.802;9.944;2023-05-10T08:45:55;2.33;;;1.10;;
5456;SDS011;2751;49.802;9.944;2023-05-10T08:48:22;1.30;;;1.20;;
5456;SDS011;2751;49.802;9.944;2023-05-10T08:50:51;3.37;;;1.60;;
5456;SDS011;2751;49.802;9.944;2023-05-10T08:53:21;3.43;;;1.30;;
5456;SDS011;2751;49.802;9.944;2023-05-10T08:55:52;1.47;;;1.30;;
5456;SDS011;2751;49.802;9.944;2023-05-10T08:58:19;2.20;;;1.57;;
5456;SDS011;2751;49.802;9.944;2023-05-10T09:00:46;4.50;;;1.43;;
5456;SDS011;2751;49.802;9.944;2023-05-10T09:03:14;4.73;;;1.67;;
5456;SDS011;2751;49.802;9.944;2023-05-10T09:05:41;2.83;;;1.63;;
5456;SDS011;2751;49.802;9.944;2023-05-10T09:08:09;1.30;;;1.30;;
5456;SDS011;2751;49.802;9.944;2023-05-10T09:10:39;3.00;;;2.20;;
5456;SDS011;2751;49.802;9.944;2023-05-10T09:13:08;4.90;;;1.90;;
5456;SDS011;2751;49.802;9.944;2023-05-10T09:15:36;4.80;;;1.67;;
5456;SDS011;2751;49.802;9.944;2023-05-10T09:18:03;2.80;;;1.30;;
5456;SDS011;2751;49.802;9.944;2023-05-10T09:20:30;1.87;;;1.57;;
5456;SDS011;2751;49.802;9.944;2023-05-10T09:22:57;3.50;;;1.63;;
5456;SDS011;2751;49.802;9.944;2023-05-10T09:25:24;9.13;;;1.87;;
5456;SDS011;2751;49.802;9.944;2023-05-10T09:27:52;1.50;;;1.40;;
5456;SDS011;2751;49.802;9.944;2023-05-10T09:30:23;3.63;;;1.50;;
5456;SDS011;2751;49.802;9.944;2023-05-10T09:32:51;2.50;;;1.40;;
5456;SDS011;2751;49.802;9.944;2023-05-10T09:35:19;3.03;;;1.80;;
5456;SDS011;2751;49.802;9.944;2023-05-10T09:37:48;1.60;;;1.50;;
5456;SDS011;2751;49.802;9.944;2023-05-10T09:40:17;1.57;;;1.47;;
5456;SDS011;2751;49.802;9.944;2023-05-10T09:42:52;1.87;;;1.63;;
5456;SDS011;2751;49.802;9.944;2023-05-10T09:45:20;4.20;;;1.97;;
5456;SDS011;2751;49.802;9.944;2023-05-10T09:47:47;3.30;;;1.80;;
5456;SDS011;2751;49.802;9.944;2023-05-10T09:50:14;1.37;;;1.27;;
5456;SDS011;2751;49.802;9.944;2023-05-10T09:52:48;3.43;;;1.60;;
5456;SDS011;2751;49.802;9.944;2023-05-10T09:55:17;3.97;;;1.90;;
5456;SDS011;2751;49.802;9.944;2023-05-10T09:57:45;1.97;;;1.83;;
5456;SDS011;2751;49.802;9.944;2023-05-10T10:00:17;1.80;;;1.70;;
5456;SDS011;2751;49.802;9.944;2023-05-10T10:02:45;1.50;;;1.40;;
5456;SDS011;2751;49.802;9.944;2023-05-10T10:05:13;1.40;;;1.30;;
5456;SDS011;2751;49.802;9.944;2023-05-10T10:07:41;2.33;;;1.47;;
5456;SDS011;2751;49.802;9.944;2023-05-10T10:10:08;2.17;;;1.50;;
5456;SDS011;2751;49.802;9.944;2023-05-10T10:12:40;2.83;;;1.60;;
5456;SDS011;2751;49.802;9.944;2023-05-10T10:15:08;3.77;;;1.40;;
5456;SDS011;2751;49.802;9.944;2023-05-10T10:17:36;1.30;;;1.20;;
5456;SDS011;2751;49.802;9.944;2023-05-10T10:20:05;1.33;;;1.10;;
5456;SDS011;2751;49.802;9.944;2023-05-10T10:22:33;2.73;;;1.13;;
5456;SDS011;2751;49.802;9.944;2023-05-10T10:25:00;2.00;;;1.20;;
5456;SDS011;2751;49.802;9.944;2023-05-10T10:30:17;0.90;;;0.90;;
5456;SDS011;2751;49.802;9.944;2023-05-10T10:33:06;1.47;;;1.37;;
5456;SDS011;2751;49.802;9.944;2023-05-10T10:35:50;1.63;;;1.47;;
5456;SDS011;2751;49.802;9.944;2023-05-10T10:38:19;1.30;;;1.13;;
5456;SDS011;2751;49.802;9.944;2023-05-10T10:40:47;1.20;;;1.10;;
5456;SDS011;2751;49.802;9.944;2023-05-10T10:43:21;3.50;;;1.13;;
5456;SDS011;2751;49.802;9.944;2023-05-10T10:48:39;1.43;;;1.33;;
5456;SDS011;2751;49.802;9.944;2023-05-10T10:51:06;4.80;;;0.90;;
5456;SDS011;2751;49.802;9.944;2023-05-10T10:53:33;1.80;;;1.13;;
5456;SDS011;2751;49.802;9.944;2023-05-10T10:56:06;1.10;;;1.10;;
5456;SDS011;2751;49.802;9.944;2023-05-10T10:58:34;4.70;;;1.30;;
5456;SDS011;2751;49.802;9.944;2023-05-10T11:01:09;1.40;;;1.10;;
5456;SDS011;2751;49.802;9.944;2023-05-10T11:03:37;1.53;;;1.37;;
5456;SDS011;2751;49.802;9.944;2023-05-10T11:06:05;6.03;;;1.87;;
5456;SDS011;2751;49.802;9.944;2023-05-10T11:08:34;2.00;;;1.50;;
5456;SDS011;2751;49.802;9.944;2023-05-10T11:11:09;1.20;;;1.10;;
5456;SDS011;2751;49.802;9.944;2023-05-10T11:13:41;2.70;;;1.07;;
5456;SDS011;2751;49.802;9.944;2023-05-10T11:16:10;1.37;;;1.27;;
5456;SDS011;2751;49.802;9.944;2023-05-10T11:18:38;3.23;;;1.33;;
5456;SDS011;2751;49.802;9.944;2023-05-10T11:21:08;3.43;;;1.53;;
5456;SDS011;2751;49.802;9.944;2023-05-10T11:23:47;3.20;;;1.27;;
5456;SDS011;2751;49.802;9.944;2023-05-10T11:26:15;1.43;;;1.10;;
5456;SDS011;2751;49.802;9.944;2023-05-10T11:28:42;2.70;;;1.33;;
5456;SDS011;2751;49.802;9.944;2023-05-10T11:31:10;1.50;;;1.40;;
5456;SDS011;2751;49.802;9.944;2023-05-10T11:33:42;1.37;;;1.00;;
5456;SDS011;2751;49.802;9.944;2023-05-10T11:36:12;2.83;;;1.23;;
5456;SDS011;2751;49.802;9.944;2023-05-10T11:38:40;1.60;;;1.00;;
5456;SDS011;2751;49.802;9.944;2023-05-10T11:41:07;2.73;;;1.20;;
5456;SDS011;2751;49.802;9.944;2023-05-10T11:43:36;2.30;;;1.37;;
5456;SDS011;2751;49.802;9.944;2023-05-10T11:46:03;1.10;;;1.10;;
5456;SDS011;2751;49.802;9.944;2023-05-10T11:48:31;1.10;;;1.00;;
5456;SDS011;2751;49.802;9.944;2023-05-10T11:50:58;1.07;;;0.90;;
5456;SDS011;2751;49.802;9.944;2023-05-10T11:53:29;1.10;;;1.00;;
5456;SDS011;2751;49.802;9.944;2023-05-10T11:56:02;2.13;;;1.50;;
5456;SDS011;2751;49.802;9.944;2023-05-10T11:58:30;1.20;;;1.10;;
5456;SDS011;2751;49.802;9.944;2023-05-10T12:00:57;2.23;;;1.33;;
5456;SDS011;2751;49.802;9.944;2023-05-10T12:03:24;3.43;;;1.87;;
5456;SDS011;2751;49.802;9.944;2023-05-10T12:05:51;5.43;;;1.30;;
5456;SDS011;2751;49.802;9.944;2023-05-10T12:08:20;1.30;;;1.20;;
5456;SDS011;2751;49.802;9.944;2023-05-10T12:10:49;1.00;;;0.90;;
5456;SDS011;2751;49.802;9.944;2023-05-10T12:13:16;1.20;;;1.10;;
5456;SDS011;2751;49.802;9.944;2023-05-10T12:15:43;1.40;;;1.10;;
5456;SDS011;2751;49.802;9.944;2023-05-10T12:18:10;1.53;;;1.10;;
5456;SDS011;2751;49.802;9.944;2023-05-10T12:20:38;1.30;;;1.20;;
5456;SDS011;2751;49.802;9.944;2023-05-10T12:23:07;1.27;;;1.20;;
5456;SDS011;2751;49.802;9.944;2023-05-10T12:25:36;2.57;;;1.47;;
5456;SDS011;2751;49.802;9.944;2023-05-10T12:28:05;1.67;;;1.60;;
5456;SDS011;2751;49.802;9.944;2023-05-10T12:30:34;1.20;;;1.10;;
5456;SDS011;2751;49.802;9.944;2023-05-10T12:33:02;1.10;;;0.90;;
5456;SDS011;2751;49.802;9.944;2023-05-10T12:35:43;3.30;;;2.80;;
5456;SDS011;2751;49.802;9.944;2023-05-10T12:38:26;1.23;;;1.13;;
5456;SDS011;2751;49.802;9.944;2023-05-10T12:40:55;1.83;;;1.10;;
5456;SDS011;2751;49.802;9.944;2023-05-10T12:43:24;1.20;;;1.20;;
5456;SDS011;2751;49.802;9.944;2023-05-10T12:45:51;1.37;;;1.00;;
5456;SDS011;2751;49.802;9.944;2023-05-10T12:48:18;10.73;;;1.40;;
5456;SDS011;2751;49.802;9.944;2023-05-10T12:50:45;0.60;;;0.60;;
5456;SDS011;2751;49.802;9.944;2023-05-10T12:53:13;1.23;;;1.13;;
5456;SDS011;2751;49.802;9.944;2023-05-10T12:55:40;2.43;;;0.90;;
5456;SDS011;2751;49.802;9.944;2023-05-10T12:58:07;3.57;;;1.57;;
5456;SDS011;2751;49.802;9.944;2023-05-10T13:00:35;3.60;;;1.60;;
5456;SDS011;2751;49.802;9.944;2023-05-10T13:03:03;5.90;;;1.97;;
5456;SDS011;2751;49.802;9.944;2023-05-10T13:05:30;2.50;;;1.53;;
5456;SDS011;2751;49.802;9.944;2023-05-10T13:07:57;3.47;;;1.70;;
5456;SDS011;2751;49.802;9.944;2023-05-10T13:10:24;4.63;;;2.20;;
5456;SDS011;2751;49.802;9.944;2023-05-10T13:12:51;5.10;;;1.70;;
5456;SDS011;2751;49.802;9.944;2023-05-10T13:15:18;3.10;;;2.20;;
5456;SDS011;2751;49.802;9.944;2023-05-10T13:17:46;4.10;;;2.10;;
5456;SDS011;2751;49.802;9.944;2023-05-10T13:20:13;3.10;;;1.97;;
5456;SDS011;2751;49.802;9.944;2023-05-10T13:22:40;2.23;;;2.03;;
5456;SDS011;2751;49.802;9.944;2023-05-10T13:25:07;1.93;;;1.80;;
5456;SDS011;2751;49.802;9.944;2023-05-10T13:27:35;5.07;;;2.50;;
5456;SDS011;2751;49.802;9.944;2023-05-10T13:30:02;2.40;;;2.20;;
5456;SDS011;2751;49.802;9.944;2023-05-10T13:32:29;7.43;;;2.57;;
5456;SDS011;2751;49.802;9.944;2023-05-10T13:34:57;5.17;;;3.20;;
5456;SDS011;2751;49.802;9.944;2023-05-10T13:37:24;4.20;;;2.73;;
5456;SDS011;2751;49.802;9.944;2023-05-10T13:39:51;4.17;;;3.57;;
5456;SDS011;2751;49.802;9.944;2023-05-10T13:42:18;2.70;;;2.53;;
5456;SDS011;2751;49.802;9.944;2023-05-10T13:44:44;9.13;;;3.20;;
5456;SDS011;2751;49.802;9.944;2023-05-10T13:47:11;4.50;;;2.80;;
5456;SDS011;2751;49.802;9.944;2023-05-10T13:49:38;3.07;;;2.50;;
5456;SDS011;2751;49.802;9.944;2023-05-10T13:52:06;6.23;;;3.43;;
5456;SDS011;2751;49.802;9.944;2023-05-10T13:54:35;4.33;;;2.87;;
5456;SDS011;2751;49.802;9.944;2023-05-10T13:57:03;3.80;;;3.10;;
5456;SDS011;2751;49.802;9.944;2023-05-10T13:59:30;4.07;;;3.77;;
5456;SDS011;2751;49.802;9.944;2023-05-10T14:01:57;3.67;;;3.30;;
5456;SDS011;2751;49.802;9.944;2023-05-10T14:04:24;3.10;;;2.90;;
5456;SDS011;2751;49.802;9.944;2023-05-10T14:06:51;3.20;;;2.63;;
5456;SDS011;2751;49.802;9.944;2023-05-10T14:09:20;3.20;;;2.60;;
5456;SDS011;2751;49.802;9.944;2023-05-10T14:11:46;3.33;;;2.67;;
5456;SDS011;2751;49.802;9.944;2023-05-10T14:14:13;2.90;;;2.70;;
5456;SDS011;2751;49.802;9.944;2023-05-10T14:16:41;3.90;;;2.87;;
5456;SDS011;2751;49.802;9.944;2023-05-10T14:19:09;3.50;;;2.43;;
5456;SDS011;2751;49.802;9.944;2023-05-10T14:21:36;4.13;;;2.90;;
5456;SDS011;2751;49.802;9.944;2023-05-10T14:24:03;2.10;;;2.00;;
5456;SDS011;2751;49.802;9.944;2023-05-10T14:26:33;5.60;;;3.10;;
5456;SDS011;2751;49.802;9.944;2023-05-10T14:29:00;5.13;;;2.77;;
5456;SDS011;2751;49.802;9.944;2023-05-10T14:31:27;3.90;;;2.97;;
5456;SDS011;2751;49.802;9.944;2023-05-10T14:33:55;3.13;;;2.90;;
5456;SDS011;2751;49.802;9.944;2023-05-10T14:36:22;3.30;;;2.90;;
5456;SDS011;2751;49.802;9.944;2023-05-10T14:38:49;6.10;;;3.10;;
5456;SDS011;2751;49.802;9.944;2023-05-10T14:41:15;3.03;;;2.83;;
5456;SDS011;2751;49.802;9.944;2023-05-10T14:43:44;2.70;;;2.50;;
5456;SDS011;2751;49.802;9.944;2023-05-10T14:46:11;3.00;;;2.70;;
5456;SDS011;2751;49.802;9.944;2023-05-10T14:48:37;2.33;;;2.23;;
5456;SDS011;2751;49.802;9.944;2023-05-10T14:51:04;4.83;;;2.30;;
5456;SDS011;2751;49.802;9.944;2023-05-10T14:53:31;6.17;;;2.07;;
5456;SDS011;2751;49.802;9.944;2023-05-10T14:55:58;3.13;;;2.63;;
5456;SDS011;2751;49.802;9.944;2023-05-10T14:58:26;2.93;;;2.67;;
5456;SDS011;2751;49.802;9.944;2023-05-10T15:00:54;3.03;;;2.83;;
5456;SDS011;2751;49.802;9.944;2023-05-10T15:03:21;4.00;;;3.40;;
5456;SDS011;2751;49.802;9.944;2023-05-10T15:05:48;7.30;;;3.27;;
5456;SDS011;2751;49.802;9.944;2023-05-10T15:08:16;3.90;;;2.73;;
5456;SDS011;2751;49.802;9.944;2023-05-10T15:10:43;3.60;;;2.80;;
5456;SDS011;2751;49.802;9.944;2023-05-10T15:13:09;7.10;;;3.20;;
5456;SDS011;2751;49.802;9.944;2023-05-10T15:15:36;3.20;;;2.90;;
5456;SDS011;2751;49.802;9.944;2023-05-10T15:18:05;7.07;;;3.53;;
5456;SDS011;2751;49.802;9.944;2023-05-10T15:20:31;5.73;;;3.20;;
5456;SDS011;2751;49.802;9.944;2023-05-10T15:22:58;3.67;;;3.37;;
5456;SDS011;2751;49.802;9.944;2023-05-10T15:25:25;6.40;;;3.60;;
5456;SDS011;2751;49.802;9.944;2023-05-10T15:27:53;10.00;;;8.77;;
5456;SDS011;2751;49.802;9.944;2023-05-10T15:30:20;5.43;;;3.67;;
5456;SDS011;2751;49.802;9.944;2023-05-10T15:32:47;4.50;;;3.30;;